Time;durP1;ratioP1;P1;durP2;ratioP2;P2;SDS_P1;SDS_P2;PMS_P1;PMS_P2;Temp;Humidity;BMP_temperature;BMP_pressure;BME280_temperature;BME280_humidity;BME280_pressure;Samples;Min_cycle;Max_cycle;Signal;HPM_P1;HPM_P2
2021/03/05 00:00:17;;;;;;;68.28;38.13;;;205.60;1305.60;;;;;;5035362;28;20033;-80
2021/03/05 00:02:43;;;;;;;67.53;34.85;;;205.50;1305.60;;;;;;5035590;28;20029;-71
2021/03/05 00:05:10;;;;;;;64.68;35.17;;;205.50;1305.60;;;;;;5035341;28;20033;-71
2021/03/05 00:07:36;;;;;;;63.83;35.22;;;205.40;1305.60;;;;;;5035300;28;20159;-71
2021/03/05 00:10:07;;;;;;;60.78;32.53;;;205.40;1331.20;;;;;;5033981;28;20026;-71
2021/03/05 00:12:33;;;;;;;57.08;32.45;;;205.30;1331.20;;;;;;5035191;28;20117;-71
2021/03/05 00:14:59;;;;;;;61.10;33.50;;;205.30;1331.20;;;;;;5035180;28;20101;-81
2021/03/05 00:17:24;;;;;;;66.50;34.85;;;205.30;1331.20;;;;;;5035158;28;20022;-84
2021/03/05 00:19:50;;;;;;;63.30;33.53;;;205.40;1331.20;;;;;;5035123;28;20072;-72
2021/03/05 00:22:16;;;;;;;63.13;33.75;;;205.30;1331.20;;;;;;5035152;28;20562;-72
2021/03/05 00:24:42;;;;;;;53.67;29.35;;;205.30;1331.20;;;;;;5033795;28;20028;-73
2021/03/05 00:27:08;;;;;;;49.33;30.40;;;205.30;1331.20;;;;;;5034988;28;20036;-74
2021/03/05 00:29:34;;;;;;;55.65;30.10;;;205.20;1356.80;;;;;;5034885;28;20018;-71
2021/03/05 00:32:00;;;;;;;55.65;28.83;;;205.30;1331.20;;;;;;5035288;28;20043;-72
2021/03/05 00:34:26;;;;;;;49.58;28.45;;;205.20;1356.80;;;;;;5035089;28;20429;-72
2021/03/05 00:36:52;;;;;;;51.65;27.77;;;205.10;1331.20;;;;;;5034918;28;20026;-72
2021/03/05 00:39:18;;;;;;;47.13;27.05;;;205.20;1331.20;;;;;;5034877;28;20160;-71
2021/03/05 00:41:43;;;;;;;49.40;27.58;;;205.10;1331.20;;;;;;5033526;28;20486;-71
2021/03/05 00:44:09;;;;;;;45.42;26.23;;;205.10;1356.80;;;;;;5034551;28;20033;-71
2021/03/05 00:46:35;;;;;;;48.53;27.48;;;205.20;1331.20;;;;;;5034595;28;20452;-71
2021/03/05 00:49:02;;;;;;;48.10;25.52;;;205.10;1356.80;;;;;;5033406;28;20025;-71
2021/03/05 00:51:28;;;;;;;45.30;24.67;;;205.10;1356.80;;;;;;5034578;28;20083;-83
2021/03/05 00:53:54;;;;;;;37.28;22.05;;;205.10;1356.80;;;;;;5033994;28;20054;-71
2021/03/05 00:56:20;;;;;;;40.95;23.40;;;205.10;1356.80;;;;;;5034457;28;20057;-83
2021/03/05 00:58:45;;;;;;;42.08;23.50;;;205.00;1356.80;;;;;;5034474;28;20021;-72
2021/03/05 01:01:11;;;;;;;41.13;23.63;;;205.00;1356.80;;;;;;5034486;28;20029;-82
2021/03/05 01:03:37;;;;;;;44.97;24.88;;;204.90;1356.80;;;;;;5034211;28;20112;-71
2021/03/05 01:06:04;;;;;;;45.78;24.83;;;205.00;1356.80;;;;;;5034322;28;20028;-71
2021/03/05 01:08:30;;;;;;;47.58;25.98;;;204.80;1382.40;;;;;;5033028;28;20041;-71
2021/03/05 01:10:56;;;;;;;47.90;29.13;;;204.80;1356.80;;;;;;5034152;28;20471;-83
2021/03/05 01:13:21;;;;;;;51.85;26.45;;;204.80;1382.40;;;;;;5033936;28;20113;-85
2021/03/05 01:15:47;;;;;;;45.72;25.58;;;204.80;1356.80;;;;;;5034097;28;20401;-75
2021/03/05 01:18:14;;;;;;;43.50;24.83;;;204.80;1356.80;;;;;;5033916;28;20025;-72
2021/03/05 01:20:41;;;;;;;40.30;23.23;;;180.10;1382.40;;;;;;5034084;28;20022;-72
2021/03/05 01:23:07;;;;;;;36.58;21.92;;;180.10;1382.40;;;;;;5033872;28;20029;-71
2021/03/05 01:25:33;;;;;;;43.13;22.92;;;180.10;1382.40;;;;;;5032679;28;20075;-71
2021/03/05 01:28:00;;;;;;;42.22;23.88;;;180.10;1356.80;;;;;;5033786;28;20037;-71
2021/03/05 01:30:26;;;;;;;36.30;22.23;;;180.10;1382.40;;;;;;5032603;28;20025;-72
2021/03/05 01:32:52;;;;;;;37.35;21.88;;;180.10;1382.40;;;;;;5033811;28;20045;-71
2021/03/05 01:35:21;;;;;;;37.55;21.75;;;180.10;1382.40;;;;;;5033840;28;20044;-71
2021/03/05 01:37:47;;;;;;;41.30;22.73;;;180.00;1382.40;;;;;;5032400;28;20029;-71
2021/03/05 01:40:32;;;;;;;41.50;21.52;;;179.90;1408.00;;;;;;5033761;28;20028;-83
2021/03/05 01:42:58;;;;;;;37.83;21.73;;;179.90;1408.00;;;;;;5033828;28;20194;-84
2021/03/05 01:45:27;;;;;;;37.72;21.35;;;179.90;1408.00;;;;;;5033730;28;20359;-72
2021/03/05 01:47:57;;;;;;;33.75;20.17;;;179.90;1433.60;;;;;;5033708;28;20025;-83
2021/03/05 01:50:33;;;;;;;35.88;19.70;;;179.70;1433.60;;;;;;5033764;28;20382;-72
2021/03/05 01:53:03;;;;;;;34.88;20.75;;;179.80;1408.00;;;;;;5033498;28;20041;-82
2021/03/05 01:55:29;;;;;;;31.20;18.92;;;179.70;1433.60;;;;;;5033691;28;20040;-73
2021/03/05 01:57:55;;;;;;;37.38;20.58;;;179.80;1408.00;;;;;;5033770;28;20025;-72
2021/03/05 02:00:43;;;;;;;29.67;19.58;;;179.70;1433.60;;;;;;5033427;28;20045;-71
2021/03/05 02:03:09;;;;;;;31.98;19.45;;;179.70;1433.60;;;;;;5033350;28;20385;-71
2021/03/05 02:05:37;;;;;;;33.15;20.85;;;179.70;1433.60;;;;;;5033583;28;20096;-84
2021/03/05 02:08:04;;;;;;;33.97;21.15;;;179.70;1433.60;;;;;;5033542;28;20451;-72
2021/03/05 02:10:30;;;;;;;37.38;22.35;;;179.80;1408.00;;;;;;5032211;28;20021;-72
2021/03/05 02:12:56;;;;;;;45.47;20.35;;;179.80;1408.00;;;;;;5033724;28;20433;-71
2021/03/05 02:15:23;;;;;;;35.13;21.13;;;179.90;1433.60;;;;;;5036247;28;20511;-79
2021/03/05 02:18:00;;;;;;;34.53;21.02;;;179.90;1433.60;;;;;;5048912;28;20029;-71
2021/03/05 02:20:47;;;;;;;36.75;20.65;;;179.90;1408.00;;;;;;5036192;28;20504;-83
2021/03/05 02:23:41;;;;;;;32.80;19.77;;;179.80;1408.00;;;;;;5037726;28;20059;-78
2021/03/05 02:26:34;;;;;;;35.08;20.20;;;179.80;1433.60;;;;;;5036062;28;20029;-71
2021/03/05 02:29:53;;;;;;;34.15;20.40;;;179.70;1433.60;;;;;;5037147;28;20429;-71
2021/03/05 02:32:33;;;;;;;33.22;19.65;;;179.60;1433.60;;;;;;5035427;28;20064;-82
2021/03/05 02:35:00;;;;;;;41.55;20.50;;;179.60;1433.60;;;;;;5035282;28;20033;-71
2021/03/05 02:37:32;;;;;;;33.35;19.73;;;179.50;1459.20;;;;;;5034869;28;20482;-72
2021/03/05 02:40:06;;;;;;;38.20;20.17;;;179.60;1459.20;;;;;;5018751;28;20038;-71
2021/03/05 02:42:47;;;;;;;37.85;20.90;;;179.60;1459.20;;;;;;5034827;28;20028;-71
2021/03/05 02:45:26;;;;;;;37.20;20.42;;;179.50;1459.20;;;;;;5018264;28;20596;-71
2021/03/05 02:48:07;;;;;;;37.65;21.10;;;179.50;1484.80;;;;;;5034749;28;20053;-71
2021/03/05 02:50:35;;;;;;;32.85;19.63;;;179.50;1484.80;;;;;;5035250;28;20029;-71
2021/03/05 02:53:04;;;;;;;37.47;20.00;;;179.40;1459.20;;;;;;5034521;28;20072;-71
2021/03/05 02:55:32;;;;;;;37.28;21.35;;;179.40;1484.80;;;;;;5034784;28;20026;-72
2021/03/05 02:58:00;;;;;;;38.35;21.48;;;179.40;1484.80;;;;;;5034547;28;20113;-71
2021/03/05 03:00:28;;;;;;;41.25;21.88;;;179.30;1484.80;;;;;;5034727;28;20441;-84
2021/03/05 03:02:55;;;;;;;32.67;19.98;;;179.30;1510.40;;;;;;5034509;28;20108;-71
2021/03/05 03:05:22;;;;;;;38.70;21.63;;;179.30;1510.40;;;;;;5035223;28;20040;-84
2021/03/05 03:07:50;;;;;;;31.92;19.08;;;179.20;1510.40;;;;;;5036400;28;20026;-71
2021/03/05 03:10:19;;;;;;;28.85;17.95;;;179.30;1484.80;;;;;;5036861;28;20413;-73
2021/03/05 03:12:46;;;;;;;29.98;19.25;;;179.30;1484.80;;;;;;5036202;28;20025;-71
2021/03/05 03:15:13;;;;;;;38.67;25.42;;;179.20;1484.80;;;;;;5036224;28;20427;-71
2021/03/05 03:17:43;;;;;;;34.92;22.73;;;179.20;1484.80;;;;;;5036334;28;20033;-71
2021/03/05 03:20:12;;;;;;;34.30;21.48;;;179.20;1484.80;;;;;;5036274;28;20032;-71
2021/03/05 03:22:39;;;;;;;38.35;22.17;;;179.30;1484.80;;;;;;5036206;28;20108;-71
2021/03/05 03:25:05;;;;;;;35.47;20.20;;;179.30;1459.20;;;;;;5035626;28;20116;-84
2021/03/05 03:27:31;;;;;;;32.03;19.27;;;179.40;1459.20;;;;;;5035989;28;20097;-71
2021/03/05 03:29:58;;;;;;;32.15;19.13;;;179.40;1459.20;;;;;;5035947;28;20069;-71
2021/03/05 03:32:25;;;;;;;26.08;17.40;;;179.50;1459.20;;;;;;5035954;28;20018;-84
2021/03/05 03:34:51;;;;;;;31.52;17.88;;;179.30;1484.80;;;;;;5034872;28;20022;-72
2021/03/05 03:37:18;;;;;;;36.15;18.38;;;179.20;1484.80;;;;;;5035951;28;20021;-84
2021/03/05 03:39:44;;;;;;;32.60;19.77;;;179.20;1484.80;;;;;;5035788;28;20164;-71
2021/03/05 03:42:10;;;;;;;30.88;18.92;;;179.20;1484.80;;;;;;5034727;28;20482;-72
2021/03/05 03:44:36;;;;;;;33.08;20.08;;;179.20;1484.80;;;;;;5036183;28;20032;-71
2021/03/05 03:47:02;;;;;;;32.38;19.58;;;179.30;1484.80;;;;;;5035914;28;20057;-84
2021/03/05 03:49:45;;;;;;;32.83;19.50;;;179.40;1459.20;;;;;;5035883;28;20111;-80
2021/03/05 03:52:35;;;;;;;34.90;20.77;;;179.40;1459.20;;;;;;5035590;28;20041;-72
2021/03/05 03:55:02;;;;;;;32.90;19.45;;;179.30;1459.20;;;;;;5033906;28;20128;-71
2021/03/05 03:57:30;;;;;;;30.23;18.67;;;154.50;1484.80;;;;;;5034586;28;20029;-80
2021/03/05 03:59:57;;;;;;;36.70;20.30;;;154.40;1510.40;;;;;;5035407;28;20029;-71
2021/03/05 04:02:29;;;;;;;34.67;19.70;;;154.50;1510.40;;;;;;5034263;28;20084;-83
2021/03/05 04:04:57;;;;;;;31.00;19.92;;;154.40;1536.00;;;;;;5035377;28;20076;-71
2021/03/05 04:07:26;;;;;;;31.85;18.05;;;154.30;1536.00;;;;;;5035436;28;20014;-84
2021/03/05 04:09:54;;;;;;;32.25;18.70;;;154.20;1561.60;;;;;;5035338;28;20028;-71
2021/03/05 04:12:25;;;;;;;31.88;18.98;;;154.10;1561.60;;;;;;5035194;28;20026;-84
2021/03/05 04:14:52;;;;;;;29.25;18.80;;;154.10;1561.60;;;;;;5035780;28;20644;-71
2021/03/05 04:17:18;;;;;;;31.05;18.98;;;154.10;1536.00;;;;;;5035071;28;20057;-72
2021/03/05 04:19:45;;;;;;;33.72;18.70;;;154.10;1561.60;;;;;;5033961;28;20091;-71
2021/03/05 04:22:12;;;;;;;33.60;19.38;;;153.90;1587.20;;;;;;5034959;28;20398;-72
2021/03/05 04:24:38;;;;;;;30.55;17.65;;;153.90;1612.80;;;;;;5035343;28;20116;-72
2021/03/05 04:27:08;;;;;;;30.08;20.23;;;153.90;1587.20;;;;;;5035053;28;20060;-84
2021/03/05 04:29:34;;;;;;;33.55;20.27;;;153.90;1587.20;;;;;;5034799;28;20112;-71
2021/03/05 04:32:00;;;;;;;28.48;18.67;;;154.00;1612.80;;;;;;5034778;28;20053;-72
2021/03/05 04:34:26;;;;;;;30.15;18.92;;;154.00;1587.20;;;;;;5034966;28;20044;-74
2021/03/05 04:36:52;;;;;;;30.88;18.40;;;154.10;1587.20;;;;;;5034101;28;20084;-84
2021/03/05 04:39:18;;;;;;;34.75;19.02;;;154.20;1561.60;;;;;;5034857;28;20025;-72
2021/03/05 04:41:44;;;;;;;29.65;17.48;;;154.20;1587.20;;;;;;5034726;28;20022;-71
2021/03/05 04:44:09;;;;;;;28.83;18.40;;;154.20;1561.60;;;;;;5035009;28;20040;-83
2021/03/05 04:46:35;;;;;;;31.77;17.77;;;154.30;1561.60;;;;;;5034982;28;20037;-71
2021/03/05 04:49:01;;;;;;;33.50;17.88;;;154.40;1536.00;;;;;;5034513;28;20095;-71
2021/03/05 04:51:27;;;;;;;31.35;16.95;;;154.50;1536.00;;;;;;5034734;28;20057;-71
2021/03/05 04:53:53;;;;;;;32.20;17.92;;;179.20;1510.40;;;;;;5034167;28;20131;-71
2021/03/05 04:56:19;;;;;;;28.23;17.60;;;179.30;1510.40;;;;;;5034413;28;20025;-83
2021/03/05 04:58:45;;;;;;;35.63;19.33;;;179.40;1510.40;;;;;;5034341;28;20056;-71
2021/03/05 05:01:11;;;;;;;34.30;18.38;;;179.40;1510.40;;;;;;5034398;28;20100;-71
2021/03/05 05:03:37;;;;;;;41.72;23.50;;;179.40;1510.40;;;;;;5034623;28;20029;-71
2021/03/05 05:06:03;;;;;;;54.92;25.70;;;179.40;1484.80;;;;;;5034201;28;20036;-71
2021/03/05 05:08:29;;;;;;;39.58;21.90;;;179.40;1510.40;;;;;;5034187;28;20079;-81
2021/03/05 05:10:55;;;;;;;36.78;21.90;;;179.40;1510.40;;;;;;5034222;28;20022;-85
2021/03/05 05:13:20;;;;;;;35.95;20.63;;;179.40;1510.40;;;;;;5034221;28;20084;-71
2021/03/05 05:15:46;;;;;;;35.53;20.20;;;179.40;1510.40;;;;;;5034111;28;20053;-71
2021/03/05 05:18:12;;;;;;;36.58;20.35;;;179.50;1510.40;;;;;;5034256;28;20025;-71
2021/03/05 05:20:38;;;;;;;30.23;18.52;;;179.50;1510.40;;;;;;5037570;28;20029;-75
2021/03/05 05:23:04;;;;;;;32.55;18.33;;;179.50;1510.40;;;;;;5041389;28;20057;-71
2021/03/05 05:25:30;;;;;;;29.10;19.13;;;179.50;1484.80;;;;;;5032798;28;20033;-72
2021/03/05 05:27:56;;;;;;;34.67;18.63;;;179.50;1510.40;;;;;;5033893;28;20466;-71
2021/03/05 05:30:22;;;;;;;29.15;17.88;;;179.50;1510.40;;;;;;5033988;28;20101;-72
2021/03/05 05:32:48;;;;;;;27.52;17.13;;;179.50;1510.40;;;;;;5034202;28;20164;-73
2021/03/05 05:35:14;;;;;;;31.95;17.48;;;179.60;1484.80;;;;;;5034252;28;20065;-85
2021/03/05 05:37:40;;;;;;;30.55;18.17;;;179.60;1484.80;;;;;;5033696;28;20021;-71
2021/03/05 05:40:06;;;;;;;29.80;17.88;;;179.70;1459.20;;;;;;5033746;28;20018;-71
2021/03/05 05:42:32;;;;;;;42.58;23.08;;;179.70;1459.20;;;;;;5033561;28;20120;-82
2021/03/05 05:44:58;;;;;;;46.92;21.00;;;179.80;1433.60;;;;;;5033940;28;20065;-77
2021/03/05 05:47:28;;;;;;;31.85;18.80;;;179.70;1459.20;;;;;;5033721;28;20437;-71
2021/03/05 05:50:00;;;;;;;28.67;18.02;;;179.60;1459.20;;;;;;5033451;28;20057;-71
2021/03/05 05:52:29;;;;;;;33.60;18.13;;;179.70;1433.60;;;;;;5033327;28;20045;-71
2021/03/05 05:54:55;;;;;;;28.73;16.45;;;179.70;1433.60;;;;;;5033548;28;20355;-71
2021/03/05 05:57:23;;;;;;;31.23;17.83;;;179.80;1433.60;;;;;;5033842;28;20033;-84
2021/03/05 05:59:49;;;;;;;34.58;17.98;;;179.80;1433.60;;;;;;5033473;28;20025;-72
2021/03/05 06:02:16;;;;;;;32.25;17.33;;;179.70;1433.60;;;;;;5033566;28;20390;-71
2021/03/05 06:04:43;;;;;;;36.88;19.52;;;179.70;1433.60;;;;;;5033656;28;20076;-84
2021/03/05 06:07:10;;;;;;;37.97;23.48;;;179.70;1433.60;;;;;;5032114;28;20185;-71
2021/03/05 06:09:36;;;;;;;49.78;22.85;;;179.80;1433.60;;;;;;5033333;28;20023;-71
2021/03/05 06:12:12;;;;;;;42.22;20.33;;;179.80;1408.00;;;;;;5033246;28;20037;-71
2021/03/05 06:14:42;;;;;;;37.25;19.17;;;179.80;1433.60;;;;;;5033447;28;20439;-71
2021/03/05 06:17:08;;;;;;;68.38;36.53;;;179.80;1433.60;;;;;;5033147;28;20041;-71
2021/03/05 06:19:34;;;;;;;44.50;25.00;;;179.80;1408.00;;;;;;5033293;28;20032;-84
2021/03/05 06:22:01;;;;;;;40.15;22.35;;;179.80;1433.60;;;;;;5033408;28;20018;-71
2021/03/05 06:24:28;;;;;;;40.97;21.73;;;179.90;1408.00;;;;;;5033720;28;20022;-72
2021/03/05 06:26:58;;;;;;;34.72;21.05;;;179.80;1408.00;;;;;;5033236;28;20544;-71
2021/03/05 06:29:46;;;;;;;40.60;21.52;;;179.90;1408.00;;;;;;5033269;28;20026;-84
2021/03/05 06:32:16;;;;;;;38.08;21.65;;;180.00;1408.00;;;;;;5033619;28;20083;-71
2021/03/05 06:34:48;;;;;;;35.80;20.30;;;180.00;1408.00;;;;;;5033240;28;20045;-76
2021/03/05 06:37:15;;;;;;;38.53;22.08;;;180.10;1408.00;;;;;;5033467;28;20018;-84
2021/03/05 06:39:41;;;;;;;41.38;21.50;;;204.80;1382.40;;;;;;5031969;28;20025;-71
2021/03/05 06:42:07;;;;;;;40.60;22.30;;;205.10;1382.40;;;;;;5034939;28;20033;-83
2021/03/05 06:44:45;;;;;;;56.47;26.42;;;204.90;1382.40;;;;;;5044274;28;20025;-71
2021/03/05 06:47:14;;;;;;;49.67;27.55;;;205.00;1356.80;;;;;;5053246;28;20027;-72
2021/03/05 06:49:41;;;;;;;45.80;25.52;;;205.10;1356.80;;;;;;5052953;28;20152;-82
2021/03/05 06:52:08;;;;;;;49.65;24.92;;;205.10;1356.80;;;;;;5053043;28;20047;-83
2021/03/05 06:54:36;;;;;;;43.42;23.30;;;205.20;1356.80;;;;;;5053028;28;20528;-72
2021/03/05 06:57:03;;;;;;;43.47;22.88;;;205.30;1356.80;;;;;;5052870;28;20495;-72
2021/03/05 06:59:36;;;;;;;35.65;21.15;;;205.30;1356.80;;;;;;5052954;28;20024;-73
2021/03/05 07:02:04;;;;;;;43.47;21.17;;;205.40;1331.20;;;;;;5056348;28;20028;-71
2021/03/05 07:04:34;;;;;;;39.28;20.20;;;205.50;1331.20;;;;;;5056567;28;20021;-72
2021/03/05 07:07:03;;;;;;;42.45;19.38;;;205.70;1305.60;;;;;;5056425;28;20032;-72
2021/03/05 07:09:41;;;;;;;35.22;19.33;;;230.50;1280.00;;;;;;5049076;28;20025;-73
2021/03/05 07:12:27;;;;;;;38.08;17.98;;;230.80;1280.00;;;;;;5035243;28;20108;-83
2021/03/05 07:15:07;;;;;;;38.83;17.27;;;230.90;1254.40;;;;;;5036696;28;20036;-71
2021/03/05 07:17:33;;;;;;;30.27;16.52;;;231.10;1228.80;;;;;;5036307;28;20051;-71
2021/03/05 07:19:59;;;;;;;39.65;17.73;;;256.00;1203.20;;;;;;5036190;28;20071;-71
2021/03/05 07:22:27;;;;;;;31.45;17.67;;;256.50;1177.60;;;;;;5052455;28;20104;-83
2021/03/05 07:24:58;;;;;;;36.05;15.60;;;281.80;1126.40;;;;;;5056554;28;20029;-87
2021/03/05 07:27:30;;;;;;;21.70;13.82;;;282.20;1100.80;;;;;;5056383;28;20029;-85
2021/03/05 07:29:58;;;;;;;30.80;14.93;;;282.40;1100.80;;;;;;5056555;28;20438;-84
2021/03/05 07:32:34;;;;;;;49.40;14.25;;;282.10;1126.40;;;;;;5056338;28;20028;-83
2021/03/05 07:35:02;;;;;;;30.40;13.68;;;281.80;1126.40;;;;;;5056248;28;20100;-72
2021/03/05 07:37:41;;;;;;;28.40;13.98;;;281.70;1152.00;;;;;;5056230;28;20027;-71
2021/03/05 07:40:10;;;;;;;27.00;13.68;;;256.90;1126.40;;;;;;5055144;28;20036;-84
2021/03/05 07:42:38;;;;;;;23.35;13.45;;;256.80;1152.00;;;;;;5054489;28;20075;-71
2021/03/05 07:45:06;;;;;;;26.95;14.05;;;256.70;1152.00;;;;;;5054791;28;20520;-72
2021/03/05 07:47:36;;;;;;;25.13;15.02;;;256.70;1152.00;;;;;;5055619;28;20017;-71
2021/03/05 07:50:08;;;;;;;28.27;15.57;;;256.70;1177.60;;;;;;5055842;28;20060;-71
2021/03/05 07:52:35;;;;;;;24.40;15.15;;;256.70;1152.00;;;;;;5052428;28;20089;-84
2021/03/05 07:55:01;;;;;;;29.48;15.90;;;256.80;1152.00;;;;;;5054688;28;20143;-73
2021/03/05 07:57:30;;;;;;;26.48;14.25;;;281.70;1177.60;;;;;;5039946;28;20029;-72
2021/03/05 07:59:59;;;;;;;25.10;13.73;;;281.90;1152.00;;;;;;5042751;28;20377;-71
2021/03/05 08:02:27;;;;;;;29.92;13.82;;;282.50;1126.40;;;;;;5036863;28;20030;-72
2021/03/05 08:04:55;;;;;;;32.38;12.15;;;307.20;1126.40;;;;;;5049057;28;20369;-71
2021/03/05 08:07:29;;;;;;;145.95;17.60;;;307.40;1100.80;;;;;;5055189;28;20381;-71
2021/03/05 08:09:58;;;;;;;28.00;13.80;;;307.50;1100.80;;;;;;5055056;28;20028;-71
2021/03/05 08:12:31;;;;;;;51.50;14.75;;;307.70;1100.80;;;;;;5054963;28;20496;-72
2021/03/05 08:15:09;;;;;;;36.05;11.98;;;307.60;1075.20;;;;;;5055092;28;20029;-72
2021/03/05 08:17:45;;;;;;;40.25;12.23;;;307.50;1126.40;;;;;;5054947;28;20091;-72
2021/03/05 08:20:37;;;;;;;46.92;13.60;;;307.40;1126.40;;;;;;5054948;28;20017;-72
2021/03/05 08:23:03;;;;;;;35.50;12.73;;;307.30;1126.40;;;;;;5051704;28;20040;-72
2021/03/05 08:25:34;;;;;;;37.80;12.88;;;307.30;1126.40;;;;;;5054726;28;20029;-72
2021/03/05 08:28:02;;;;;;;25.35;11.95;;;307.30;1152.00;;;;;;5054737;28;20048;-72
2021/03/05 08:30:35;;;;;;;40.95;12.65;;;307.30;1152.00;;;;;;5054609;28;20389;-71
2021/03/05 08:33:05;;;;;;;77.20;13.02;;;307.30;1152.00;;;;;;5054539;28;20033;-71
2021/03/05 08:35:31;;;;;;;20.23;11.32;;;307.30;1126.40;;;;;;5054822;28;20028;-72
2021/03/05 08:38:01;;;;;;;35.30;11.75;;;307.30;1152.00;;;;;;5054558;28;20017;-71
2021/03/05 08:40:52;;;;;;;21.20;10.57;;;307.30;1152.00;;;;;;5054488;28;20068;-71
2021/03/05 08:43:26;;;;;;;18.02;10.50;;;307.40;1152.00;;;;;;5054696;28;20025;-71
2021/03/05 08:45:55;;;;;;;49.83;10.95;;;307.50;1152.00;;;;;;5054400;28;20053;-71
2021/03/05 08:48:48;;;;;;;29.02;11.10;;;307.60;1152.00;;;;;;5054363;28;20025;-72
2021/03/05 08:51:20;;;;;;;18.48;11.30;;;307.80;1152.00;;;;;;5053642;28;20025;-72
2021/03/05 08:53:48;;;;;;;28.58;11.77;;;307.90;1126.40;;;;;;5053909;28;20088;-71
2021/03/05 08:56:27;;;;;;;42.75;16.25;;;308.10;1152.00;;;;;;5053920;28;20028;-72
2021/03/05 08:59:06;;;;;;;52.72;17.27;;;308.10;1126.40;;;;;;5054608;28;20032;-71
2021/03/05 09:01:38;;;;;;;46.72;19.23;;;308.10;1126.40;;;;;;5054181;28;20389;-83
2021/03/05 09:04:22;;;;;;;40.65;12.02;;;332.80;1152.00;;;;;;5054364;28;20409;-71
2021/03/05 09:06:56;;;;;;;23.55;12.68;;;332.80;1152.00;;;;;;5053897;28;20028;-72
2021/03/05 09:09:23;;;;;;;;;;;333.00;1152.00;;;;;;5054543;28;20112;-72
2021/03/05 09:12:13;;;;;;;24.30;10.60;;;333.10;1177.60;;;;;;5053853;28;19975;-71
2021/03/05 09:14:40;;;;;;;22.15;10.00;;;333.20;1177.60;;;;;;5053772;28;20033;-71
2021/03/05 09:17:07;;;;;;;37.25;11.50;;;333.30;1177.60;;;;;;5053819;28;20017;-71
2021/03/05 09:19:40;;;;;;;44.25;11.57;;;333.30;1177.60;;;;;;5053748;28;20052;-71
2021/03/05 09:22:12;;;;;;;31.63;12.45;;;333.40;1177.60;;;;;;5053730;28;20082;-71
2021/03/05 09:24:58;;;;;;;60.20;13.45;;;333.50;1177.60;;;;;;5051587;28;20067;-82
2021/03/05 09:27:27;;;;;;;31.95;12.77;;;333.70;1203.20;;;;;;5051970;28;20072;-71
2021/03/05 09:29:54;;;;;;;55.47;15.88;;;358.40;1228.80;;;;;;5053723;28;20029;-71
2021/03/05 09:32:21;;;;;;;56.63;14.25;;;358.40;1228.80;;;;;;5053805;28;20028;-71
2021/03/05 09:34:58;;;;;;;114.72;24.80;;;358.50;1228.80;;;;;;5053460;28;20033;-71
2021/03/05 09:37:29;;;;;;;75.85;27.52;;;358.50;1228.80;;;;;;5053551;28;20088;-70
2021/03/05 09:39:58;;;;;;;34.75;15.55;;;358.40;1228.80;;;;;;5043466;28;20029;-81
2021/03/05 09:42:53;;;;;;;134.10;19.10;;;358.50;1228.80;;;;;;5048363;28;20017;-81
2021/03/05 09:45:33;;;;;;;21.23;12.18;;;358.50;1228.80;;;;;;5050670;28;20021;-81
2021/03/05 09:48:00;;;;;;;22.58;12.50;;;358.60;1254.40;;;;;;5049650;28;20017;-83
2021/03/05 09:50:26;;;;;;;23.70;11.95;;;358.60;1228.80;;;;;;5051772;28;20022;-70
2021/03/05 09:52:53;;;;;;;27.42;13.30;;;358.50;1254.40;;;;;;5047475;28;20072;-70
2021/03/05 09:55:30;;;;;;;27.30;12.48;;;358.50;1254.40;;;;;;5043958;28;20117;-72
2021/03/05 09:58:10;;;;;;;23.40;11.52;;;358.40;1254.40;;;;;;5048250;28;20431;-82
2021/03/05 10:00:37;;;;;;;27.17;14.27;;;358.40;1254.40;;;;;;5050028;28;20033;-70
2021/03/05 10:03:07;;;;;;;34.22;12.75;;;333.70;1280.00;;;;;;5051996;28;20064;-70
2021/03/05 10:05:35;;;;;;;81.05;16.42;;;333.70;1254.40;;;;;;5053799;28;20071;-70
2021/03/05 10:08:22;;;;;;;25.00;14.77;;;333.70;1254.40;;;;;;5053195;28;20024;-70
2021/03/05 10:11:04;;;;;;;24.83;16.45;;;358.50;1254.40;;;;;;5051933;28;20397;-69
2021/03/05 10:13:43;;;;;;;37.30;19.55;;;358.60;1254.40;;;;;;5053266;28;20063;-70
2021/03/05 10:16:14;;;;;;;46.38;17.45;;;358.80;1228.80;;;;;;5052581;28;20024;-71
2021/03/05 10:18:41;;;;;;;185.95;72.53;;;358.80;1228.80;;;;;;5036254;28;20563;-71
2021/03/05 10:21:11;;;;;;;61.10;41.05;;;358.80;1228.80;;;;;;5037708;28;20041;-71
2021/03/05 10:23:39;;;;;;;24.40;15.38;;;358.80;1228.80;;;;;;5038737;28;20103;-70
2021/03/05 10:26:22;;;;;;;23.60;12.13;;;358.90;1228.80;;;;;;5048041;28;20056;-71
2021/03/05 10:28:54;;;;;;;25.38;12.20;;;358.90;1254.40;;;;;;5037456;28;20590;-71
2021/03/05 10:31:21;;;;;;;22.60;13.25;;;358.90;1228.80;;;;;;5033303;28;20116;-82
2021/03/05 10:33:47;;;;;;;24.15;13.10;;;359.00;1254.40;;;;;;5048257;28;20033;-71
2021/03/05 10:36:14;;;;;;;35.30;12.65;;;359.00;1228.80;;;;;;5054207;28;20380;-70
2021/03/05 10:38:41;;;;;;;33.88;12.65;;;358.90;1228.80;;;;;;5054543;28;20021;-72
2021/03/05 10:41:09;;;;;;;29.58;15.02;;;358.90;1254.40;;;;;;5035739;28;20045;-82
2021/03/05 10:43:36;;;;;;;27.90;15.38;;;358.80;1254.40;;;;;;5036777;28;20079;-71
2021/03/05 10:46:03;;;;;;;21.98;13.25;;;358.80;1254.40;;;;;;5037293;28;20401;-71
2021/03/05 10:48:29;;;;;;;30.13;14.52;;;358.80;1254.40;;;;;;5037039;28;20024;-71
2021/03/05 10:50:55;;;;;;;27.83;13.90;;;358.80;1280.00;;;;;;5048359;28;20472;-81
2021/03/05 10:53:21;;;;;;;22.88;14.00;;;358.70;1280.00;;;;;;5056273;28;20048;-83
2021/03/05 10:55:47;;;;;;;23.15;14.90;;;358.70;1280.00;;;;;;5056250;28;20100;-82
2021/03/05 10:58:13;;;;;;;33.33;16.33;;;358.60;1280.00;;;;;;5050622;28;20044;-81
2021/03/05 11:00:40;;;;;;;26.83;17.05;;;358.70;1280.00;;;;;;5056234;28;20025;-71
2021/03/05 11:03:06;;;;;;;26.13;14.02;;;358.70;1280.00;;;;;;5042449;28;20108;-81
2021/03/05 11:05:32;;;;;;;57.05;16.88;;;358.70;1280.00;;;;;;5053259;28;20104;-70
2021/03/05 11:07:58;;;;;;;34.20;15.10;;;358.80;1280.00;;;;;;5055549;28;20021;-71
2021/03/05 11:10:24;;;;;;;24.45;15.80;;;358.90;1280.00;;;;;;5050390;28;20025;-80
2021/03/05 11:12:50;;;;;;;24.17;15.43;;;358.90;1280.00;;;;;;5044056;28;20037;-81
2021/03/05 11:15:17;;;;;;;28.30;17.70;;;358.90;1254.40;;;;;;5043975;28;20038;-78
2021/03/05 11:17:44;;;;;;;22.33;15.52;;;358.90;1254.40;;;;;;5046340;28;20029;-79
2021/03/05 11:20:11;;;;;;;21.17;14.68;;;358.90;1254.40;;;;;;5052369;28;20033;-73
2021/03/05 11:22:37;;;;;;;27.92;16.45;;;358.90;1305.60;;;;;;5036543;28;20025;-82
2021/03/05 11:25:07;;;;;;;32.53;19.02;;;358.90;1280.00;;;;;;5036417;28;20022;-83
2021/03/05 11:27:35;;;;;;;31.58;17.23;;;358.90;1280.00;;;;;;5040281;28;20017;-83
2021/03/05 11:30:04;;;;;;;26.17;15.75;;;358.90;1280.00;;;;;;5044829;28;20128;-83
2021/03/05 11:32:32;;;;;;;28.05;15.57;;;358.80;1254.40;;;;;;5034851;28;20489;-82
2021/03/05 11:34:57;;;;;;;31.77;16.27;;;358.60;1280.00;;;;;;5046204;28;20107;-79
2021/03/05 11:37:24;;;;;;;62.60;19.85;;;358.70;1280.00;;;;;;5045259;28;20029;-71
2021/03/05 11:39:50;;;;;;;38.67;16.33;;;358.70;1305.60;;;;;;5037556;28;20469;-80
2021/03/05 11:42:16;;;;;;;49.65;24.52;;;358.80;1305.60;;;;;;5034758;28;20029;-83
2021/03/05 11:44:42;;;;;;;36.25;21.45;;;358.70;1305.60;;;;;;5035844;28;20037;-72
2021/03/05 11:47:07;;;;;;;27.02;17.17;;;358.80;1305.60;;;;;;5035375;28;20025;-82
2021/03/05 11:49:34;;;;;;;47.63;31.60;;;358.80;1305.60;;;;;;5044128;28;20540;-70
2021/03/05 11:52:00;;;;;;;100.45;65.68;;;358.80;1305.60;;;;;;5042294;28;20478;-70
2021/03/05 11:54:25;;;;;;;101.07;68.45;;;358.80;1280.00;;;;;;5035324;28;20030;-71
2021/03/05 11:56:51;;;;;;;25.23;16.75;;;358.80;1305.60;;;;;;5035506;28;20025;-71
2021/03/05 11:59:17;;;;;;;239.30;155.73;;;358.80;1305.60;;;;;;5049615;28;20017;-72
2021/03/05 12:01:43;;;;;;;62.47;42.33;;;358.70;1331.20;;;;;;5053640;28;20017;-71
2021/03/05 12:04:09;;;;;;;53.78;35.05;;;358.80;1305.60;;;;;;5049624;28;20024;-70
2021/03/05 12:06:35;;;;;;;115.95;92.57;;;358.70;1305.60;;;;;;5050018;28;20043;-70
2021/03/05 12:09:02;;;;;;;35.15;25.00;;;358.70;1305.60;;;;;;5048100;28;20048;-71